sensor_id;sensor_type;location;lat;lon;timestamp;pressure;altitude;pressure_sealevel;temperature;humidity
74524;BME280;63074;44.696;10.358;2023-08-08T00:00:09;100052.22;;;23.72;40.18
74524;BME280;63074;44.696;10.358;2023-08-08T00:02:36;100060.00;;;23.05;40.83
74524;BME280;63074;44.696;10.358;2023-08-08T00:05:02;100066.84;;;22.85;40.87
74524;BME280;63074;44.696;10.358;2023-08-08T00:07:29;100058.69;;;23.02;40.76
74524;BME280;63074;44.696;10.358;2023-08-08T00:09:56;100049.25;;;22.77;40.85
74524;BME280;63074;44.696;10.358;2023-08-08T00:12:22;100041.44;;;23.10;40.41
74524;BME280;63074;44.696;10.358;2023-08-08T00:14:49;100036.81;;;23.28;39.81
74524;BME280;63074;44.696;10.358;2023-08-08T00:17:15;100036.31;;;23.17;40.25
74524;BME280;63074;44.696;10.358;2023-08-08T00:19:41;100032.16;;;23.46;39.93
74524;BME280;63074;44.696;10.358;2023-08-08T00:22:08;100045.03;;;23.19;40.28
74524;BME280;63074;44.696;10.358;2023-08-08T00:24:34;100046.34;;;23.31;40.46
74524;BME280;63074;44.696;10.358;2023-08-08T00:27:00;100044.25;;;23.45;40.35
74524;BME280;63074;44.696;10.358;2023-08-08T00:29:27;100029.16;;;23.65;39.76
74524;BME280;63074;44.696;10.358;2023-08-08T00:31:53;100047.16;;;23.31;40.45
74524;BME280;63074;44.696;10.358;2023-08-08T00:34:19;100037.06;;;23.58;39.43
74524;BME280;63074;44.696;10.358;2023-08-08T00:36:45;100037.28;;;23.21;40.06
74524;BME280;63074;44.696;10.358;2023-08-08T00:39:11;100039.41;;;23.24;39.79
74524;BME280;63074;44.696;10.358;2023-08-08T00:41:37;100051.75;;;22.34;42.23
74524;BME280;63074;44.696;10.358;2023-08-08T00:44:04;100050.63;;;22.97;41.33
74524;BME280;63074;44.696;10.358;2023-08-08T00:46:30;100060.09;;;22.91;41.95
74524;BME280;63074;44.696;10.358;2023-08-08T00:48:57;100067.19;;;22.61;43.20
74524;BME280;63074;44.696;10.358;2023-08-08T00:51:24;100059.91;;;22.87;42.36
74524;BME280;63074;44.696;10.358;2023-08-08T00:53:51;100075.31;;;22.44;43.40
74524;BME280;63074;44.696;10.358;2023-08-08T00:56:18;100067.44;;;22.42;43.49
74524;BME280;63074;44.696;10.358;2023-08-08T00:58:45;100059.47;;;22.94;42.35
74524;BME280;63074;44.696;10.358;2023-08-08T01:01:12;100064.03;;;23.07;42.39
74524;BME280;63074;44.696;10.358;2023-08-08T01:03:38;100061.44;;;23.02;42.43
74524;BME280;63074;44.696;10.358;2023-08-08T01:11:20;100044.16;;;22.93;42.48
74524;BME280;63074;44.696;10.358;2023-08-08T01:13:47;100051.22;;;22.85;42.68
74524;BME280;63074;44.696;10.358;2023-08-08T01:16:14;100049.69;;;23.19;42.15
74524;BME280;63074;44.696;10.358;2023-08-08T01:18:41;100046.94;;;23.10;42.76
74524;BME280;63074;44.696;10.358;2023-08-08T01:21:09;100045.78;;;22.94;42.83
74524;BME280;63074;44.696;10.358;2023-08-08T01:23:53;100056.59;;;22.37;44.66
74524;BME280;63074;44.696;10.358;2023-08-08T01:26:21;100064.72;;;22.20;46.04
74524;BME280;63074;44.696;10.358;2023-08-08T01:28:48;100071.50;;;22.53;45.84
74524;BME280;63074;44.696;10.358;2023-08-08T01:31:14;100075.22;;;22.57;45.95
74524;BME280;63074;44.696;10.358;2023-08-08T01:33:40;100087.94;;;21.86;48.02
74524;BME280;63074;44.696;10.358;2023-08-08T01:36:33;100077.75;;;22.45;45.84
74524;BME280;63074;44.696;10.358;2023-08-08T01:39:02;100086.84;;;22.63;45.64
74524;BME280;63074;44.696;10.358;2023-08-08T01:41:34;100078.59;;;22.54;45.45
74524;BME280;63074;44.696;10.358;2023-08-08T01:44:04;100076.13;;;22.44;45.60
74524;BME280;63074;44.696;10.358;2023-08-08T01:46:32;100072.22;;;22.37;45.38
74524;BME280;63074;44.696;10.358;2023-08-08T01:48:59;100063.81;;;22.33;44.79
74524;BME280;63074;44.696;10.358;2023-08-08T01:51:26;100071.16;;;22.46;45.33
74524;BME280;63074;44.696;10.358;2023-08-08T01:53:53;100072.16;;;22.50;44.36
74524;BME280;63074;44.696;10.358;2023-08-08T01:56:19;100085.06;;;22.58;44.60
74524;BME280;63074;44.696;10.358;2023-08-08T01:58:45;100079.69;;;22.76;43.83
74524;BME280;63074;44.696;10.358;2023-08-08T02:01:12;100090.31;;;22.24;44.91
74524;BME280;63074;44.696;10.358;2023-08-08T02:03:38;100077.63;;;22.28;44.74
74524;BME280;63074;44.696;10.358;2023-08-08T02:06:04;100072.94;;;22.20;44.38
74524;BME280;63074;44.696;10.358;2023-08-08T02:08:30;100072.03;;;22.33;44.38
74524;BME280;63074;44.696;10.358;2023-08-08T02:10:56;100073.97;;;22.64;43.80
74524;BME280;63074;44.696;10.358;2023-08-08T02:13:23;100080.69;;;22.57;43.54
74524;BME280;63074;44.696;10.358;2023-08-08T02:15:49;100086.94;;;22.18;43.50
74524;BME280;63074;44.696;10.358;2023-08-08T02:18:15;100092.69;;;22.70;43.07
74524;BME280;63074;44.696;10.358;2023-08-08T02:20:41;100088.34;;;21.80;43.67
74524;BME280;63074;44.696;10.358;2023-08-08T02:23:07;100084.09;;;22.85;41.86
74524;BME280;63074;44.696;10.358;2023-08-08T02:25:34;100093.63;;;22.12;42.94
74524;BME280;63074;44.696;10.358;2023-08-08T02:28:00;100091.47;;;22.23;43.04
74524;BME280;63074;44.696;10.358;2023-08-08T02:30:26;100092.44;;;22.05;42.93
74524;BME280;63074;44.696;10.358;2023-08-08T02:32:52;100084.56;;;22.56;42.95
74524;BME280;63074;44.696;10.358;2023-08-08T02:35:18;100086.84;;;22.10;43.54
74524;BME280;63074;44.696;10.358;2023-08-08T02:37:45;100099.38;;;21.88;43.75
74524;BME280;63074;44.696;10.358;2023-08-08T02:40:11;100083.03;;;22.42;42.72
74524;BME280;63074;44.696;10.358;2023-08-08T02:42:37;100086.53;;;22.34;42.75
74524;BME280;63074;44.696;10.358;2023-08-08T02:45:04;100089.47;;;22.68;42.37
74524;BME280;63074;44.696;10.358;2023-08-08T02:47:30;100087.75;;;21.83;43.72
74524;BME280;63074;44.696;10.358;2023-08-08T02:49:56;100087.97;;;22.31;43.19
74524;BME280;63074;44.696;10.358;2023-08-08T02:52:23;100093.53;;;21.81;44.21
74524;BME280;63074;44.696;10.358;2023-08-08T02:54:49;100103.34;;;22.18;44.26
74524;BME280;63074;44.696;10.358;2023-08-08T02:57:16;100112.28;;;21.74;45.71
74524;BME280;63074;44.696;10.358;2023-08-08T02:59:43;100134.91;;;21.39;47.41
74524;BME280;63074;44.696;10.358;2023-08-08T03:02:09;100127.00;;;21.65;46.93
74524;BME280;63074;44.696;10.358;2023-08-08T03:04:35;100113.78;;;22.39;44.96
74524;BME280;63074;44.696;10.358;2023-08-08T03:07:01;100126.47;;;21.99;46.42
74524;BME280;63074;44.696;10.358;2023-08-08T03:09:30;100127.72;;;22.06;45.96
74524;BME280;63074;44.696;10.358;2023-08-08T03:11:56;100132.34;;;22.19;45.99
74524;BME280;63074;44.696;10.358;2023-08-08T03:14:22;100154.78;;;21.31;48.75
74524;BME280;63074;44.696;10.358;2023-08-08T03:16:48;100164.03;;;21.16;49.44
74524;BME280;63074;44.696;10.358;2023-08-08T03:19:14;100160.25;;;20.71;49.86
74524;BME280;63074;44.696;10.358;2023-08-08T03:21:41;100142.59;;;21.50;48.86
74524;BME280;63074;44.696;10.358;2023-08-08T03:24:07;100141.78;;;21.50;48.32
74524;BME280;63074;44.696;10.358;2023-08-08T03:26:33;100148.66;;;21.20;50.07
74524;BME280;63074;44.696;10.358;2023-08-08T03:28:59;100133.22;;;20.69;50.59
74524;BME280;63074;44.696;10.358;2023-08-08T03:31:25;100140.94;;;21.08;50.47
74524;BME280;63074;44.696;10.358;2023-08-08T03:33:53;100146.31;;;21.00;50.53
74524;BME280;63074;44.696;10.358;2023-08-08T03:36:19;100156.09;;;20.73;51.43
74524;BME280;63074;44.696;10.358;2023-08-08T03:38:46;100147.66;;;21.02;48.56
74524;BME280;63074;44.696;10.358;2023-08-08T03:41:13;100152.66;;;21.28;48.29
74524;BME280;63074;44.696;10.358;2023-08-08T03:43:40;100141.38;;;21.56;47.44
74524;BME280;63074;44.696;10.358;2023-08-08T03:46:06;100135.31;;;21.60;46.21
74524;BME280;63074;44.696;10.358;2023-08-08T03:48:33;100125.34;;;21.77;45.35
74524;BME280;63074;44.696;10.358;2023-08-08T03:50:59;100115.88;;;21.61;45.34
74524;BME280;63074;44.696;10.358;2023-08-08T03:53:25;100126.25;;;21.73;45.49
74524;BME280;63074;44.696;10.358;2023-08-08T03:55:51;100122.47;;;21.33;45.78
74524;BME280;63074;44.696;10.358;2023-08-08T03:58:18;100135.63;;;21.44;45.73
74524;BME280;63074;44.696;10.358;2023-08-08T04:00:45;100131.56;;;21.55;45.34
74524;BME280;63074;44.696;10.358;2023-08-08T04:03:15;100129.03;;;21.59;45.32
74524;BME280;63074;44.696;10.358;2023-08-08T04:05:45;100135.53;;;21.36;45.95
74524;BME280;63074;44.696;10.358;2023-08-08T04:08:17;100143.63;;;21.27;46.72
74524;BME280;63074;44.696;10.358;2023-08-08T04:10:45;100141.28;;;21.07;46.59
74524;BME280;63074;44.696;10.358;2023-08-08T04:13:12;100144.66;;;21.31;46.35
74524;BME280;63074;44.696;10.358;2023-08-08T04:15:38;100151.31;;;21.52;47.38
74524;BME280;63074;44.696;10.358;2023-08-08T04:18:05;100162.81;;;21.08;47.91
74524;BME280;63074;44.696;10.358;2023-08-08T04:20:33;100157.47;;;21.17;47.45
74524;BME280;63074;44.696;10.358;2023-08-08T04:23:00;100159.50;;;20.65;49.30
74524;BME280;63074;44.696;10.358;2023-08-08T04:25:27;100152.81;;;21.04;48.82
74524;BME280;63074;44.696;10.358;2023-08-08T04:27:53;100162.97;;;20.19;50.68
74524;BME280;63074;44.696;10.358;2023-08-08T04:30:19;100164.69;;;20.80;50.50
74524;BME280;63074;44.696;10.358;2023-08-08T04:32:46;100171.00;;;20.48;51.35
74524;BME280;63074;44.696;10.358;2023-08-08T04:35:12;100163.25;;;20.69;50.70
74524;BME280;63074;44.696;10.358;2023-08-08T04:37:38;100160.63;;;20.64;49.67
74524;BME280;63074;44.696;10.358;2023-08-08T04:40:05;100172.84;;;20.99;49.68
74524;BME280;63074;44.696;10.358;2023-08-08T04:42:31;100171.00;;;21.08;49.02
74524;BME280;63074;44.696;10.358;2023-08-08T04:44:57;100183.13;;;21.35;49.08
74524;BME280;63074;44.696;10.358;2023-08-08T04:47:24;100200.16;;;20.67;51.97
74524;BME280;63074;44.696;10.358;2023-08-08T04:49:50;100204.88;;;20.94;51.80
74524;BME280;63074;44.696;10.358;2023-08-08T04:52:16;100178.59;;;20.98;48.79
74524;BME280;63074;44.696;10.358;2023-08-08T04:54:42;100171.13;;;21.17;48.96
74524;BME280;63074;44.696;10.358;2023-08-08T04:57:10;100175.97;;;21.20;49.35
74524;BME280;63074;44.696;10.358;2023-08-08T04:59:36;100172.78;;;21.59;48.06
74524;BME280;63074;44.696;10.358;2023-08-08T05:02:02;100170.00;;;21.86;47.46
74524;BME280;63074;44.696;10.358;2023-08-08T05:04:30;100152.22;;;21.98;46.79
74524;BME280;63074;44.696;10.358;2023-08-08T05:06:56;100161.31;;;21.71;47.45
74524;BME280;63074;44.696;10.358;2023-08-08T05:09:23;100181.69;;;21.37;50.63
74524;BME280;63074;44.696;10.358;2023-08-08T05:11:52;100186.66;;;21.21;51.93
74524;BME280;63074;44.696;10.358;2023-08-08T05:14:19;100200.75;;;21.10;54.41
74524;BME280;63074;44.696;10.358;2023-08-08T05:16:45;100242.03;;;20.43;59.28
74524;BME280;63074;44.696;10.358;2023-08-08T05:19:12;100252.41;;;20.60;59.02
74524;BME280;63074;44.696;10.358;2023-08-08T05:21:38;100247.31;;;20.16;59.09
74524;BME280;63074;44.696;10.358;2023-08-08T05:24:04;100258.31;;;20.67;60.00
74524;BME280;63074;44.696;10.358;2023-08-08T05:26:31;100255.06;;;20.65;60.08
74524;BME280;63074;44.696;10.358;2023-08-08T05:28:57;100250.38;;;20.84;58.54
74524;BME280;63074;44.696;10.358;2023-08-08T05:31:23;100250.53;;;20.42;58.74
74524;BME280;63074;44.696;10.358;2023-08-08T05:33:49;100235.88;;;21.35;54.04
74524;BME280;63074;44.696;10.358;2023-08-08T05:36:15;100226.38;;;21.14;53.67
74524;BME280;63074;44.696;10.358;2023-08-08T05:38:42;100253.06;;;21.36;55.67
74524;BME280;63074;44.696;10.358;2023-08-08T05:41:08;100240.59;;;21.43;53.68
74524;BME280;63074;44.696;10.358;2023-08-08T05:46:01;100231.28;;;22.13;52.16
74524;BME280;63074;44.696;10.358;2023-08-08T05:48:27;100227.72;;;22.12;51.79
74524;BME280;63074;44.696;10.358;2023-08-08T05:50:53;100231.88;;;21.96;52.36
74524;BME280;63074;44.696;10.358;2023-08-08T05:53:20;100225.81;;;22.13;51.71
74524;BME280;63074;44.696;10.358;2023-08-08T05:55:46;100233.91;;;22.18;51.97
74524;BME280;63074;44.696;10.358;2023-08-08T05:58:12;100223.88;;;22.94;50.89
74524;BME280;63074;44.696;10.358;2023-08-08T06:00:40;100208.78;;;23.05;49.50
74524;BME280;63074;44.696;10.358;2023-08-08T06:03:06;100211.31;;;23.72;48.71
74524;BME280;63074;44.696;10.358;2023-08-08T06:05:32;100210.72;;;23.05;48.01
74524;BME280;63074;44.696;10.358;2023-08-08T06:07:59;100215.38;;;23.35;48.03
74524;BME280;63074;44.696;10.358;2023-08-08T06:10:25;100205.53;;;23.65;48.02
74524;BME280;63074;44.696;10.358;2023-08-08T06:12:51;100219.13;;;23.48;49.13
74524;BME280;63074;44.696;10.358;2023-08-08T06:15:18;100216.19;;;23.75;48.05
74524;BME280;63074;44.696;10.358;2023-08-08T06:17:44;100226.75;;;23.20;49.45
74524;BME280;63074;44.696;10.358;2023-08-08T06:20:10;100222.34;;;23.81;47.97
74524;BME280;63074;44.696;10.358;2023-08-08T06:22:37;100218.91;;;23.67;48.82
74524;BME280;63074;44.696;10.358;2023-08-08T06:25:05;100217.66;;;23.42;48.72
74524;BME280;63074;44.696;10.358;2023-08-08T06:27:31;100211.56;;;24.10;48.04
74524;BME280;63074;44.696;10.358;2023-08-08T06:29:57;100210.63;;;24.23;46.94
74524;BME280;63074;44.696;10.358;2023-08-08T06:32:24;100217.31;;;23.74;47.59
74524;BME280;63074;44.696;10.358;2023-08-08T06:34:51;100217.38;;;23.52;48.10
74524;BME280;63074;44.696;10.358;2023-08-08T06:37:17;100218.84;;;24.15;47.00
74524;BME280;63074;44.696;10.358;2023-08-08T06:39:43;100207.22;;;24.18;46.37
74524;BME280;63074;44.696;10.358;2023-08-08T06:42:09;100214.81;;;24.12;47.62
74524;BME280;63074;44.696;10.358;2023-08-08T06:44:41;100209.31;;;24.12;47.90
74524;BME280;63074;44.696;10.358;2023-08-08T06:47:08;100203.16;;;24.07;46.15
74524;BME280;63074;44.696;10.358;2023-08-08T06:49:35;100207.84;;;24.06;45.75
74524;BME280;63074;44.696;10.358;2023-08-08T06:52:01;100201.72;;;24.61;45.40
74524;BME280;63074;44.696;10.358;2023-08-08T06:54:27;100213.81;;;25.03;46.30
74524;BME280;63074;44.696;10.358;2023-08-08T06:56:54;100207.75;;;25.18;47.36
74524;BME280;63074;44.696;10.358;2023-08-08T06:59:20;100199.34;;;25.23;44.81
74524;BME280;63074;44.696;10.358;2023-08-08T07:01:46;100187.13;;;25.42;43.15
74524;BME280;63074;44.696;10.358;2023-08-08T07:04:12;100185.00;;;25.47;43.45
74524;BME280;63074;44.696;10.358;2023-08-08T07:06:39;100184.94;;;25.27;43.38
74524;BME280;63074;44.696;10.358;2023-08-08T07:09:05;100215.34;;;25.30;47.24
74524;BME280;63074;44.696;10.358;2023-08-08T07:11:32;100191.41;;;25.60;42.98
74524;BME280;63074;44.696;10.358;2023-08-08T07:13:58;100179.41;;;24.80;42.53
74524;BME280;63074;44.696;10.358;2023-08-08T07:16:24;100196.97;;;25.43;43.60
74524;BME280;63074;44.696;10.358;2023-08-08T07:18:50;100188.91;;;25.00;43.15
74524;BME280;63074;44.696;10.358;2023-08-08T07:21:16;100191.44;;;25.51;42.66
74524;BME280;63074;44.696;10.358;2023-08-08T07:23:43;100184.94;;;25.65;42.81
74524;BME280;63074;44.696;10.358;2023-08-08T07:26:09;100187.69;;;25.27;43.86
74524;BME280;63074;44.696;10.358;2023-08-08T07:28:35;100181.22;;;25.61;42.28
74524;BME280;63074;44.696;10.358;2023-08-08T07:31:01;100181.53;;;25.59;42.54
74524;BME280;63074;44.696;10.358;2023-08-08T07:33:27;100180.09;;;25.53;42.99
74524;BME280;63074;44.696;10.358;2023-08-08T07:35:53;100173.28;;;26.09;42.22
74524;BME280;63074;44.696;10.358;2023-08-08T07:38:20;100195.97;;;25.85;43.35
74524;BME280;63074;44.696;10.358;2023-08-08T07:40:46;100187.72;;;26.06;43.64
74524;BME280;63074;44.696;10.358;2023-08-08T07:43:14;100203.50;;;25.38;44.15
74524;BME280;63074;44.696;10.358;2023-08-08T07:45:40;100202.34;;;25.77;43.89
74524;BME280;63074;44.696;10.358;2023-08-08T07:48:07;100184.84;;;26.03;42.99
74524;BME280;63074;44.696;10.358;2023-08-08T07:50:33;100199.47;;;25.36;44.07
74524;BME280;63074;44.696;10.358;2023-08-08T07:52:59;100176.13;;;26.21;43.43
74524;BME280;63074;44.696;10.358;2023-08-08T07:55:25;100187.25;;;26.04;43.97
74524;BME280;63074;44.696;10.358;2023-08-08T07:57:52;100188.88;;;26.26;42.78
74524;BME280;63074;44.696;10.358;2023-08-08T08:00:18;100183.50;;;25.88;42.85
74524;BME280;63074;44.696;10.358;2023-08-08T08:02:46;100185.66;;;26.45;43.39
74524;BME280;63074;44.696;10.358;2023-08-08T08:05:13;100175.13;;;26.47;41.86
74524;BME280;63074;44.696;10.358;2023-08-08T08:07:39;100198.91;;;25.80;44.83
74524;BME280;63074;44.696;10.358;2023-08-08T08:10:08;100208.56;;;25.66;45.68
74524;BME280;63074;44.696;10.358;2023-08-08T08:12:35;100197.22;;;25.97;44.44
74524;BME280;63074;44.696;10.358;2023-08-08T08:15:02;100190.44;;;25.65;43.55
74524;BME280;63074;44.696;10.358;2023-08-08T08:17:28;100176.88;;;26.64;42.29
74524;BME280;63074;44.696;10.358;2023-08-08T08:22:21;100191.75;;;25.88;43.34
74524;BME280;63074;44.696;10.358;2023-08-08T08:24:47;100191.31;;;26.48;42.54
74524;BME280;63074;44.696;10.358;2023-08-08T08:27:14;100211.38;;;26.28;44.84
74524;BME280;63074;44.696;10.358;2023-08-08T08:29:40;100203.47;;;26.27;45.53
74524;BME280;63074;44.696;10.358;2023-08-08T08:32:06;100233.38;;;26.37;47.91
74524;BME280;63074;44.696;10.358;2023-08-08T08:34:32;100212.84;;;26.05;44.54
74524;BME280;63074;44.696;10.358;2023-08-08T08:36:59;100193.69;;;26.71;43.89
74524;BME280;63074;44.696;10.358;2023-08-08T08:39:25;100207.50;;;26.50;46.06
74524;BME280;63074;44.696;10.358;2023-08-08T08:44:22;100209.13;;;26.51;45.20
74524;BME280;63074;44.696;10.358;2023-08-08T08:46:50;100212.03;;;26.67;45.42
74524;BME280;63074;44.696;10.358;2023-08-08T08:49:18;100205.72;;;26.99;46.08
74524;BME280;63074;44.696;10.358;2023-08-08T08:51:47;100200.13;;;26.75;46.04
74524;BME280;63074;44.696;10.358;2023-08-08T08:54:14;100200.84;;;27.29;45.55
74524;BME280;63074;44.696;10.358;2023-08-08T08:56:41;100189.34;;;27.39;45.06
74524;BME280;63074;44.696;10.358;2023-08-08T08:59:08;100206.25;;;26.92;46.11
74524;BME280;63074;44.696;10.358;2023-08-08T09:01:34;100232.63;;;26.48;47.46
74524;BME280;63074;44.696;10.358;2023-08-08T09:04:01;100209.94;;;27.54;47.00
74524;BME280;63074;44.696;10.358;2023-08-08T09:06:29;100199.09;;;27.12;46.03
74524;BME280;63074;44.696;10.358;2023-08-08T09:11:21;100215.81;;;27.40;47.88
74524;BME280;63074;44.696;10.358;2023-08-08T09:13:47;100189.28;;;28.25;44.58
74524;BME280;63074;44.696;10.358;2023-08-08T09:16:14;100187.25;;;27.97;45.70
74524;BME280;63074;44.696;10.358;2023-08-08T09:18:41;100180.53;;;27.58;45.23
74524;BME280;63074;44.696;10.358;2023-08-08T09:21:08;100178.47;;;28.07;44.32
74524;BME280;63074;44.696;10.358;2023-08-08T09:23:37;100184.03;;;27.46;46.11
74524;BME280;63074;44.696;10.358;2023-08-08T09:26:05;100194.97;;;27.31;47.03
74524;BME280;63074;44.696;10.358;2023-08-08T09:28:31;100199.34;;;27.80;46.63
74524;BME280;63074;44.696;10.358;2023-08-08T09:30:58;100166.06;;;28.01;43.45
74524;BME280;63074;44.696;10.358;2023-08-08T09:33:27;100162.69;;;27.68;42.79
74524;BME280;63074;44.696;10.358;2023-08-08T09:35:54;100153.97;;;28.89;41.85
74524;BME280;63074;44.696;10.358;2023-08-08T09:38:20;100126.31;;;29.21;40.15
74524;BME280;63074;44.696;10.358;2023-08-08T09:40:46;100148.44;;;28.46;42.19
74524;BME280;63074;44.696;10.358;2023-08-08T09:43:13;100134.69;;;29.24;41.61
74524;BME280;63074;44.696;10.358;2023-08-08T09:45:40;100146.59;;;28.66;41.99
74524;BME280;63074;44.696;10.358;2023-08-08T09:48:10;100143.91;;;29.44;41.63
74524;BME280;63074;44.696;10.358;2023-08-08T09:50:37;100129.41;;;28.72;40.40
74524;BME280;63074;44.696;10.358;2023-08-08T09:53:03;100159.59;;;28.49;43.73
74524;BME280;63074;44.696;10.358;2023-08-08T09:55:30;100143.63;;;29.34;42.67
74524;BME280;63074;44.696;10.358;2023-08-08T09:57:58;100164.59;;;28.32;44.28
74524;BME280;63074;44.696;10.358;2023-08-08T10:00:25;100147.81;;;29.28;42.61
74524;BME280;63074;44.696;10.358;2023-08-08T10:02:54;100147.66;;;29.05;43.33
74524;BME280;63074;44.696;10.358;2023-08-08T10:05:20;100149.00;;;29.11;42.34
74524;BME280;63074;44.696;10.358;2023-08-08T10:07:47;100114.91;;;30.50;39.27
74524;BME280;63074;44.696;10.358;2023-08-08T10:10:13;100127.97;;;29.57;41.67
74524;BME280;63074;44.696;10.358;2023-08-08T10:12:41;100136.75;;;29.28;41.87
74524;BME280;63074;44.696;10.358;2023-08-08T10:15:08;100125.38;;;30.18;40.09
74524;BME280;63074;44.696;10.358;2023-08-08T10:17:39;100109.91;;;30.79;40.16
74524;BME280;63074;44.696;10.358;2023-08-08T10:20:10;100093.44;;;31.12;38.83
74524;BME280;63074;44.696;10.358;2023-08-08T10:22:41;100135.88;;;28.64;41.47
74524;BME280;63074;44.696;10.358;2023-08-08T10:25:08;100100.03;;;30.39;39.30
74524;BME280;63074;44.696;10.358;2023-08-08T10:27:36;100098.81;;;30.79;39.16
74524;BME280;63074;44.696;10.358;2023-08-08T10:30:08;100097.09;;;29.74;39.18
74524;BME280;63074;44.696;10.358;2023-08-08T10:32:40;100099.75;;;29.86;38.70
74524;BME280;63074;44.696;10.358;2023-08-08T10:35:07;100064.78;;;30.17;36.27
74524;BME280;63074;44.696;10.358;2023-08-08T10:37:34;100080.72;;;29.85;37.21
74524;BME280;63074;44.696;10.358;2023-08-08T10:40:02;100055.00;;;30.92;35.53
74524;BME280;63074;44.696;10.358;2023-08-08T10:42:32;100068.00;;;29.30;36.92
74524;BME280;63074;44.696;10.358;2023-08-08T10:45:00;100077.88;;;29.81;37.18
74524;BME280;63074;44.696;10.358;2023-08-08T10:47:36;100048.09;;;31.05;35.18
74524;BME280;63074;44.696;10.358;2023-08-08T10:50:14;100038.91;;;31.83;35.05
74524;BME280;63074;44.696;10.358;2023-08-08T10:55:27;100039.06;;;31.64;34.83
74524;BME280;63074;44.696;10.358;2023-08-08T11:00:24;100054.97;;;30.88;36.97
74524;BME280;63074;44.696;10.358;2023-08-08T11:02:51;100047.56;;;32.12;36.12
74524;BME280;63074;44.696;10.358;2023-08-08T11:05:18;100024.50;;;32.45;34.79
74524;BME280;63074;44.696;10.358;2023-08-08T11:07:44;100049.94;;;30.71;37.32
74524;BME280;63074;44.696;10.358;2023-08-08T11:10:11;100046.72;;;30.69;37.13
74524;BME280;63074;44.696;10.358;2023-08-08T11:12:37;100051.88;;;30.47;37.47
74524;BME280;63074;44.696;10.358;2023-08-08T11:15:03;100045.97;;;31.21;36.33
74524;BME280;63074;44.696;10.358;2023-08-08T11:17:31;100023.25;;;32.79;35.04
74524;BME280;63074;44.696;10.358;2023-08-08T11:19:57;100030.66;;;31.61;36.18
74524;BME280;63074;44.696;10.358;2023-08-08T11:22:24;100045.97;;;31.17;36.86
74524;BME280;63074;44.696;10.358;2023-08-08T11:24:50;100013.88;;;31.80;35.38
74524;BME280;63074;44.696;10.358;2023-08-08T11:27:17;100036.41;;;31.15;36.98
74524;BME280;63074;44.696;10.358;2023-08-08T11:29:50;100022.38;;;31.34;36.49
74524;BME280;63074;44.696;10.358;2023-08-08T11:32:16;100029.59;;;30.86;37.37
74524;BME280;63074;44.696;10.358;2023-08-08T11:34:43;100003.47;;;32.10;35.22
74524;BME280;63074;44.696;10.358;2023-08-08T11:37:10;99987.69;;;31.81;33.67
74524;BME280;63074;44.696;10.358;2023-08-08T11:39:37;99991.94;;;32.45;34.27
74524;BME280;63074;44.696;10.358;2023-08-08T11:42:04;99982.16;;;33.17;33.38
74524;BME280;63074;44.696;10.358;2023-08-08T11:44:32;99973.63;;;33.61;33.05
74524;BME280;63074;44.696;10.358;2023-08-08T11:47:02;99957.06;;;32.55;32.99
74524;BME280;63074;44.696;10.358;2023-08-08T11:49:29;99961.22;;;32.79;32.96
74524;BME280;63074;44.696;10.358;2023-08-08T11:54:21;99942.31;;;33.06;31.64
74524;BME280;63074;44.696;10.358;2023-08-08T11:56:47;99920.44;;;34.30;29.97
74524;BME280;63074;44.696;10.358;2023-08-08T11:59:14;99910.84;;;34.17;29.95
74524;BME280;63074;44.696;10.358;2023-08-08T12:01:41;99914.00;;;34.69;29.96
74524;BME280;63074;44.696;10.358;2023-08-08T12:04:10;99906.88;;;34.50;29.46
74524;BME280;63074;44.696;10.358;2023-08-08T12:06:39;99900.91;;;34.34;29.34
74524;BME280;63074;44.696;10.358;2023-08-08T12:09:06;99914.03;;;34.15;31.11
74524;BME280;63074;44.696;10.358;2023-08-08T12:11:36;99913.25;;;34.04;30.48
74524;BME280;63074;44.696;10.358;2023-08-08T12:14:03;99912.81;;;33.95;29.94
74524;BME280;63074;44.696;10.358;2023-08-08T12:16:30;99898.84;;;34.88;29.54
74524;BME280;63074;44.696;10.358;2023-08-08T12:21:22;99882.38;;;35.22;28.86
74524;BME280;63074;44.696;10.358;2023-08-08T12:23:49;99880.84;;;34.99;29.34
74524;BME280;63074;44.696;10.358;2023-08-08T12:26:15;99874.19;;;34.58;28.73
74524;BME280;63074;44.696;10.358;2023-08-08T12:28:41;99902.88;;;34.19;30.07
74524;BME280;63074;44.696;10.358;2023-08-08T12:31:07;99894.13;;;34.52;29.92
74524;BME280;63074;44.696;10.358;2023-08-08T12:33:33;99881.69;;;34.78;28.29
74524;BME280;63074;44.696;10.358;2023-08-08T12:35:59;99899.16;;;35.18;29.55
74524;BME280;63074;44.696;10.358;2023-08-08T12:38:26;99879.91;;;36.07;28.67
74524;BME280;63074;44.696;10.358;2023-08-08T12:40:52;99863.38;;;36.65;28.49
74524;BME280;63074;44.696;10.358;2023-08-08T12:43:18;99873.34;;;34.68;29.32
74524;BME280;63074;44.696;10.358;2023-08-08T12:45:45;99880.75;;;35.24;29.06
74524;BME280;63074;44.696;10.358;2023-08-08T12:48:12;99883.75;;;34.64;28.88
74524;BME280;63074;44.696;10.358;2023-08-08T12:50:38;99874.13;;;34.68;28.25
74524;BME280;63074;44.696;10.358;2023-08-08T12:53:05;99868.47;;;35.04;27.82
74524;BME280;63074;44.696;10.358;2023-08-08T12:55:31;99876.81;;;35.14;27.44
74524;BME280;63074;44.696;10.358;2023-08-08T12:57:57;99854.09;;;35.09;27.20
74524;BME280;63074;44.696;10.358;2023-08-08T13:00:23;99856.25;;;34.51;27.14
74524;BME280;63074;44.696;10.358;2023-08-08T13:02:50;99855.47;;;34.44;28.39